sensor_id;sensor_type;location;lat;lon;timestamp;temperature;humidity
57709;SHT35;42558;52.388;13.390;2024-03-08T00:02:08;-0.41;79.62
57709;SHT35;42558;52.388;13.390;2024-03-08T00:04:38;-0.44;79.87
57709;SHT35;42558;52.388;13.390;2024-03-08T00:07:08;-0.49;80.01
57709;SHT35;42558;52.388;13.390;2024-03-08T00:09:38;-0.51;80.07
57709;SHT35;42558;52.388;13.390;2024-03-08T00:12:08;-0.52;80.21
57709;SHT35;42558;52.388;13.390;2024-03-08T00:14:38;-0.54;80.26
57709;SHT35;42558;52.388;13.390;2024-03-08T00:17:08;-0.56;80.32
57709;SHT35;42558;52.388;13.390;2024-03-08T00:19:38;-0.58;80.42
57709;SHT35;42558;52.388;13.390;2024-03-08T00:22:09;-0.61;80.53
57709;SHT35;42558;52.388;13.390;2024-03-08T00:24:41;-0.63;80.60
57709;SHT35;42558;52.388;13.390;2024-03-08T00:27:11;-0.65;80.70
57709;SHT35;42558;52.388;13.390;2024-03-08T00:29:41;-0.65;80.84
57709;SHT35;42558;52.388;13.390;2024-03-08T00:32:11;-0.66;81.04
57709;SHT35;42558;52.388;13.390;2024-03-08T00:34:41;-0.64;81.20
57709;SHT35;42558;52.388;13.390;2024-03-08T00:37:11;-0.62;81.29
57709;SHT35;42558;52.388;13.390;2024-03-08T00:39:40;-0.60;81.30
57709;SHT35;42558;52.388;13.390;2024-03-08T00:42:11;-0.59;81.30
57709;SHT35;42558;52.388;13.390;2024-03-08T00:44:41;-0.58;81.30
57709;SHT35;42558;52.388;13.390;2024-03-08T00:47:12;-0.59;81.34
57709;SHT35;42558;52.388;13.390;2024-03-08T00:49:42;-0.57;81.43
57709;SHT35;42558;52.388;13.390;2024-03-08T00:52:12;-0.58;81.45
57709;SHT35;42558;52.388;13.390;2024-03-08T00:54:42;-0.51;81.78
57709;SHT35;42558;52.388;13.390;2024-03-08T00:57:13;-0.31;82.23
57709;SHT35;42558;52.388;13.390;2024-03-08T00:59:43;-0.35;81.72
57709;SHT35;42558;52.388;13.390;2024-03-08T01:02:13;-0.36;81.65
57709;SHT35;42558;52.388;13.390;2024-03-08T01:04:43;-0.34;81.83
57709;SHT35;42558;52.388;13.390;2024-03-08T01:07:13;-0.32;81.83
57709;SHT35;42558;52.388;13.390;2024-03-08T01:09:43;-0.36;81.60
57709;SHT35;42558;52.388;13.390;2024-03-08T01:12:13;-0.37;81.67
57709;SHT35;42558;52.388;13.390;2024-03-08T01:14:43;-0.38;81.69
57709;SHT35;42558;52.388;13.390;2024-03-08T01:17:10;-0.38;81.81
57709;SHT35;42558;52.388;13.390;2024-03-08T01:19:39;-0.38;81.80
57709;SHT35;42558;52.388;13.390;2024-03-08T01:22:08;-0.36;81.93
57709;SHT35;42558;52.388;13.390;2024-03-08T01:24:39;-0.33;82.00
57709;SHT35;42558;52.388;13.390;2024-03-08T01:27:09;-0.30;81.98
57709;SHT35;42558;52.388;13.390;2024-03-08T01:29:39;-0.29;81.87
57709;SHT35;42558;52.388;13.390;2024-03-08T01:32:09;-0.18;81.88
57709;SHT35;42558;52.388;13.390;2024-03-08T01:34:39;-0.22;81.55
57709;SHT35;42558;52.388;13.390;2024-03-08T01:37:09;-0.27;81.47
57709;SHT35;42558;52.388;13.390;2024-03-08T01:39:39;-0.30;81.54
57709;SHT35;42558;52.388;13.390;2024-03-08T01:42:08;-0.33;81.43
57709;SHT35;42558;52.388;13.390;2024-03-08T01:44:42;-0.38;81.42
57709;SHT35;42558;52.388;13.390;2024-03-08T01:47:13;-0.38;81.49
57709;SHT35;42558;52.388;13.390;2024-03-08T01:49:44;-0.42;81.40
57709;SHT35;42558;52.388;13.390;2024-03-08T01:52:15;-0.45;81.43
57709;SHT35;42558;52.388;13.390;2024-03-08T01:54:48;-0.46;81.53
57709;SHT35;42558;52.388;13.390;2024-03-08T01:57:18;-0.48;81.50
57709;SHT35;42558;52.388;13.390;2024-03-08T01:59:49;-0.49;81.78
57709;SHT35;42558;52.388;13.390;2024-03-08T02:02:20;-0.47;81.80
57709;SHT35;42558;52.388;13.390;2024-03-08T02:04:51;-0.47;81.74
57709;SHT35;42558;52.388;13.390;2024-03-08T02:07:22;-0.47;81.84
57709;SHT35;42558;52.388;13.390;2024-03-08T02:09:52;-0.41;81.87
57709;SHT35;42558;52.388;13.390;2024-03-08T02:12:22;-0.41;81.72
57709;SHT35;42558;52.388;13.390;2024-03-08T02:14:53;-0.41;81.69
57709;SHT35;42558;52.388;13.390;2024-03-08T02:17:23;-0.40;81.67
57709;SHT35;42558;52.388;13.390;2024-03-08T02:19:53;-0.43;81.49
57709;SHT35;42558;52.388;13.390;2024-03-08T02:22:25;-0.43;81.57
57709;SHT35;42558;52.388;13.390;2024-03-08T02:24:53;-0.41;81.59
57709;SHT35;42558;52.388;13.390;2024-03-08T02:27:26;-0.39;81.63
57709;SHT35;42558;52.388;13.390;2024-03-08T02:29:57;-0.39;81.56
57709;SHT35;42558;52.388;13.390;2024-03-08T02:32:27;-0.43;81.47
57709;SHT35;42558;52.388;13.390;2024-03-08T02:34:57;-0.43;81.56
57709;SHT35;42558;52.388;13.390;2024-03-08T02:37:29;-0.47;81.45
57709;SHT35;42558;52.388;13.390;2024-03-08T02:39:59;-0.51;81.50
57709;SHT35;42558;52.388;13.390;2024-03-08T02:42:28;-0.52;81.67
57709;SHT35;42558;52.388;13.390;2024-03-08T02:44:56;-0.52;81.72
57709;SHT35;42558;52.388;13.390;2024-03-08T02:47:25;-0.54;81.71
57709;SHT35;42558;52.388;13.390;2024-03-08T02:49:56;-0.56;81.70
57709;SHT35;42558;52.388;13.390;2024-03-08T02:52:25;-0.59;81.80
57709;SHT35;42558;52.388;13.390;2024-03-08T02:54:53;-0.63;81.81
57709;SHT35;42558;52.388;13.390;2024-03-08T02:57:21;-0.67;81.91
57709;SHT35;42558;52.388;13.390;2024-03-08T02:59:50;-0.69;82.08
57709;SHT35;42558;52.388;13.390;2024-03-08T03:02:18;-0.69;82.13
57709;SHT35;42558;52.388;13.390;2024-03-08T03:04:47;-0.67;82.37
57709;SHT35;42558;52.388;13.390;2024-03-08T03:07:15;-0.64;82.37
57709;SHT35;42558;52.388;13.390;2024-03-08T03:09:43;-0.67;82.27
57709;SHT35;42558;52.388;13.390;2024-03-08T03:12:12;-0.62;82.53
57709;SHT35;42558;52.388;13.390;2024-03-08T03:14:40;-0.60;82.39
57709;SHT35;42558;52.388;13.390;2024-03-08T03:17:09;-0.62;82.29
57709;SHT35;42558;52.388;13.390;2024-03-08T03:19:40;-0.64;82.21
57709;SHT35;42558;52.388;13.390;2024-03-08T03:22:12;-0.69;82.17
57709;SHT35;42558;52.388;13.390;2024-03-08T03:24:42;-0.69;82.35
57709;SHT35;42558;52.388;13.390;2024-03-08T03:27:12;-0.69;82.44
57709;SHT35;42558;52.388;13.390;2024-03-08T03:29:44;-0.74;82.26
57709;SHT35;42558;52.388;13.390;2024-03-08T03:32:19;-0.78;82.27
57709;SHT35;42558;52.388;13.390;2024-03-08T03:34:49;-0.75;82.65
57709;SHT35;42558;52.388;13.390;2024-03-08T03:37:46;-0.75;82.56
57709;SHT35;42558;52.388;13.390;2024-03-08T03:40:52;-0.81;82.40
57709;SHT35;42558;52.388;13.390;2024-03-08T03:43:26;-0.86;82.42
57709;SHT35;42558;52.388;13.390;2024-03-08T03:45:56;-0.88;82.56
57709;SHT35;42558;52.388;13.390;2024-03-08T03:48:26;-0.88;82.68
57709;SHT35;42558;52.388;13.390;2024-03-08T03:50:56;-0.89;82.72
57709;SHT35;42558;52.388;13.390;2024-03-08T03:53:26;-0.89;82.83
57709;SHT35;42558;52.388;13.390;2024-03-08T03:55:56;-0.93;82.73
57709;SHT35;42558;52.388;13.390;2024-03-08T03:58:27;-1.00;82.68
57709;SHT35;42558;52.388;13.390;2024-03-08T04:00:56;-1.03;82.72
57709;SHT35;42558;52.388;13.390;2024-03-08T04:03:24;-1.04;82.84
57709;SHT35;42558;52.388;13.390;2024-03-08T04:05:54;-1.04;82.97
57709;SHT35;42558;52.388;13.390;2024-03-08T04:08:22;-1.04;83.11
57709;SHT35;42558;52.388;13.390;2024-03-08T04:10:55;-1.03;83.37
57709;SHT35;42558;52.388;13.390;2024-03-08T04:13:25;-1.02;83.48
57709;SHT35;42558;52.388;13.390;2024-03-08T04:15:55;-1.05;83.40
57709;SHT35;42558;52.388;13.390;2024-03-08T04:18:25;-1.04;83.56
57709;SHT35;42558;52.388;13.390;2024-03-08T04:20:55;-1.00;83.79
57709;SHT35;42558;52.388;13.390;2024-03-08T04:23:25;-1.03;83.60
57709;SHT35;42558;52.388;13.390;2024-03-08T04:25:58;-1.02;83.78
57709;SHT35;42558;52.388;13.390;2024-03-08T04:28:28;-0.95;84.01
57709;SHT35;42558;52.388;13.390;2024-03-08T04:30:58;-0.98;83.77
57709;SHT35;42558;52.388;13.390;2024-03-08T04:33:30;-1.03;83.65
57709;SHT35;42558;52.388;13.390;2024-03-08T04:36:00;-1.07;83.60
57709;SHT35;42558;52.388;13.390;2024-03-08T04:38:30;-1.10;83.64
57709;SHT35;42558;52.388;13.390;2024-03-08T04:41:00;-1.14;83.60
57709;SHT35;42558;52.388;13.390;2024-03-08T04:43:31;-1.13;83.78
57709;SHT35;42558;52.388;13.390;2024-03-08T04:46:01;-1.14;83.78
57709;SHT35;42558;52.388;13.390;2024-03-08T04:48:33;-1.17;83.82
57709;SHT35;42558;52.388;13.390;2024-03-08T04:51:03;-1.17;83.90
57709;SHT35;42558;52.388;13.390;2024-03-08T04:53:31;-1.13;84.10
57709;SHT35;42558;52.388;13.390;2024-03-08T04:56:00;-1.14;84.00
57709;SHT35;42558;52.388;13.390;2024-03-08T04:58:35;-1.15;84.00
57709;SHT35;42558;52.388;13.390;2024-03-08T05:01:05;-1.15;84.01
57709;SHT35;42558;52.388;13.390;2024-03-08T05:03:35;-1.12;84.14
57709;SHT35;42558;52.388;13.390;2024-03-08T05:06:06;-1.11;84.11
57709;SHT35;42558;52.388;13.390;2024-03-08T05:08:36;-1.11;84.02
57709;SHT35;42558;52.388;13.390;2024-03-08T05:11:06;-1.09;84.14
57709;SHT35;42558;52.388;13.390;2024-03-08T05:13:37;-1.13;83.88
57709;SHT35;42558;52.388;13.390;2024-03-08T05:16:07;-1.18;83.86
57709;SHT35;42558;52.388;13.390;2024-03-08T05:18:37;-1.19;84.00
57709;SHT35;42558;52.388;13.390;2024-03-08T05:21:07;-1.20;84.04
57709;SHT35;42558;52.388;13.390;2024-03-08T05:23:39;-1.16;84.26
57709;SHT35;42558;52.388;13.390;2024-03-08T05:26:09;-1.10;84.38
57709;SHT35;42558;52.388;13.390;2024-03-08T05:28:39;-1.16;84.05
57709;SHT35;42558;52.388;13.390;2024-03-08T05:31:09;-1.22;83.94
57709;SHT35;42558;52.388;13.390;2024-03-08T05:33:39;-1.26;84.01
57709;SHT35;42558;52.388;13.390;2024-03-08T05:36:09;-1.18;84.42
57709;SHT35;42558;52.388;13.390;2024-03-08T05:38:41;-1.09;84.47
57709;SHT35;42558;52.388;13.390;2024-03-08T05:41:12;-1.15;84.12
57709;SHT35;42558;52.388;13.390;2024-03-08T05:43:43;-1.16;84.20
57709;SHT35;42558;52.388;13.390;2024-03-08T05:46:15;-1.12;84.46
57709;SHT35;42558;52.388;13.390;2024-03-08T05:48:47;-1.05;84.42
57709;SHT35;42558;52.388;13.390;2024-03-08T05:51:17;-0.99;84.39
57709;SHT35;42558;52.388;13.390;2024-03-08T05:53:50;-0.96;84.14
57709;SHT35;42558;52.388;13.390;2024-03-08T05:56:22;-1.03;83.89
57709;SHT35;42558;52.388;13.390;2024-03-08T05:58:53;-1.05;83.89
57709;SHT35;42558;52.388;13.390;2024-03-08T06:01:24;-1.09;83.82
57709;SHT35;42558;52.388;13.390;2024-03-08T06:03:56;-1.09;83.88
57709;SHT35;42558;52.388;13.390;2024-03-08T06:06:27;-1.09;84.00
57709;SHT35;42558;52.388;13.390;2024-03-08T06:08:56;-1.07;84.12
57709;SHT35;42558;52.388;13.390;2024-03-08T06:11:28;-1.01;84.31
57709;SHT35;42558;52.388;13.390;2024-03-08T06:14:00;-0.95;84.36
57709;SHT35;42558;52.388;13.390;2024-03-08T06:16:30;-0.85;84.36
57709;SHT35;42558;52.388;13.390;2024-03-08T06:19:00;-0.81;84.15
57709;SHT35;42558;52.388;13.390;2024-03-08T06:21:32;-0.75;84.11
57709;SHT35;42558;52.388;13.390;2024-03-08T06:24:02;-0.67;83.96
57709;SHT35;42558;52.388;13.390;2024-03-08T06:26:33;-0.53;83.49
57709;SHT35;42558;52.388;13.390;2024-03-08T06:29:06;-0.47;83.23
57709;SHT35;42558;52.388;13.390;2024-03-08T06:31:36;-0.42;82.94
57709;SHT35;42558;52.388;13.390;2024-03-08T06:34:09;-0.40;82.81
57709;SHT35;42558;52.388;13.390;2024-03-08T06:36:39;-0.39;82.69
57709;SHT35;42558;52.388;13.390;2024-03-08T06:39:09;-0.38;82.59
57709;SHT35;42558;52.388;13.390;2024-03-08T06:41:40;-0.33;82.67
57709;SHT35;42558;52.388;13.390;2024-03-08T06:44:10;-0.25;82.58
57709;SHT35;42558;52.388;13.390;2024-03-08T06:46:40;-0.17;82.34
57709;SHT35;42558;52.388;13.390;2024-03-08T06:49:10;-0.10;82.02
57709;SHT35;42558;52.388;13.390;2024-03-08T06:51:40;-0.08;81.93
57709;SHT35;42558;52.388;13.390;2024-03-08T06:54:11;0.01;81.95
57709;SHT35;42558;52.388;13.390;2024-03-08T06:56:41;0.06;81.67
57709;SHT35;42558;52.388;13.390;2024-03-08T06:59:11;0.12;81.44
57709;SHT35;42558;52.388;13.390;2024-03-08T07:01:42;0.30;81.42
57709;SHT35;42558;52.388;13.390;2024-03-08T07:04:12;0.60;80.73
57709;SHT35;42558;52.388;13.390;2024-03-08T07:06:42;0.71;80.07
57709;SHT35;42558;52.388;13.390;2024-03-08T07:09:12;0.81;79.50
57709;SHT35;42558;52.388;13.390;2024-03-08T07:11:43;0.91;78.85
57709;SHT35;42558;52.388;13.390;2024-03-08T07:14:14;1.06;78.47
57709;SHT35;42558;52.388;13.390;2024-03-08T07:16:45;1.18;77.96
57709;SHT35;42558;52.388;13.390;2024-03-08T07:19:15;1.38;77.73
57709;SHT35;42558;52.388;13.390;2024-03-08T07:21:46;1.35;77.01
57709;SHT35;42558;52.388;13.390;2024-03-08T07:24:17;1.44;76.88
57709;SHT35;42558;52.388;13.390;2024-03-08T07:26:47;1.32;76.31
57709;SHT35;42558;52.388;13.390;2024-03-08T07:29:22;1.40;76.66
57709;SHT35;42558;52.388;13.390;2024-03-08T07:31:50;1.72;76.56
57709;SHT35;42558;52.388;13.390;2024-03-08T07:34:25;1.98;75.60
57709;SHT35;42558;52.388;13.390;2024-03-08T07:36:55;2.20;74.95
57709;SHT35;42558;52.388;13.390;2024-03-08T07:39:26;2.27;74.12
57709;SHT35;42558;52.388;13.390;2024-03-08T07:41:56;2.23;74.14
57709;SHT35;42558;52.388;13.390;2024-03-08T07:44:26;2.42;74.06
57709;SHT35;42558;52.388;13.390;2024-03-08T07:46:56;2.42;73.05
57709;SHT35;42558;52.388;13.390;2024-03-08T07:49:26;2.36;73.60
57709;SHT35;42558;52.388;13.390;2024-03-08T07:51:56;2.47;73.00
57709;SHT35;42558;52.388;13.390;2024-03-08T07:54:27;2.57;72.66
57709;SHT35;42558;52.388;13.390;2024-03-08T07:56:57;2.92;72.46
57709;SHT35;42558;52.388;13.390;2024-03-08T07:59:27;3.18;71.36
57709;SHT35;42558;52.388;13.390;2024-03-08T08:01:57;3.56;69.85
57709;SHT35;42558;52.388;13.390;2024-03-08T08:04:29;3.76;69.10
57709;SHT35;42558;52.388;13.390;2024-03-08T08:06:59;3.76;68.54
57709;SHT35;42558;52.388;13.390;2024-03-08T08:09:29;3.80;68.05
57709;SHT35;42558;52.388;13.390;2024-03-08T08:12:04;3.58;68.29
57709;SHT35;42558;52.388;13.390;2024-03-08T08:14:36;4.03;68.30
57709;SHT35;42558;52.388;13.390;2024-03-08T08:17:06;4.63;67.32
57709;SHT35;42558;52.388;13.390;2024-03-08T08:19:40;4.46;65.58
57709;SHT35;42558;52.388;13.390;2024-03-08T08:22:09;4.42;66.07
57709;SHT35;42558;52.388;13.390;2024-03-08T08:24:38;4.53;65.57
57709;SHT35;42558;52.388;13.390;2024-03-08T08:27:06;4.49;65.01
57709;SHT35;42558;52.388;13.390;2024-03-08T08:29:34;4.41;65.86
57709;SHT35;42558;52.388;13.390;2024-03-08T08:32:03;4.59;65.75
57709;SHT35;42558;52.388;13.390;2024-03-08T08:34:31;4.99;65.10
57709;SHT35;42558;52.388;13.390;2024-03-08T08:37:00;5.09;64.24
57709;SHT35;42558;52.388;13.390;2024-03-08T08:39:28;5.27;63.89
57709;SHT35;42558;52.388;13.390;2024-03-08T08:41:58;5.50;62.21
57709;SHT35;42558;52.388;13.390;2024-03-08T08:44:26;5.05;62.47
57709;SHT35;42558;52.388;13.390;2024-03-08T08:46:56;5.31;62.29
57709;SHT35;42558;52.388;13.390;2024-03-08T08:49:40;5.39;61.64
57709;SHT35;42558;52.388;13.390;2024-03-08T08:52:10;5.14;61.78
57709;SHT35;42558;52.388;13.390;2024-03-08T08:54:44;4.96;62.19
57709;SHT35;42558;52.388;13.390;2024-03-08T08:57:18;5.12;61.98
57709;SHT35;42558;52.388;13.390;2024-03-08T08:59:50;5.32;61.65
57709;SHT35;42558;52.388;13.390;2024-03-08T09:02:19;5.45;60.82
57709;SHT35;42558;52.388;13.390;2024-03-08T09:04:50;5.23;61.02
57709;SHT35;42558;52.388;13.390;2024-03-08T09:07:20;5.69;60.66
57709;SHT35;42558;52.388;13.390;2024-03-08T09:09:51;6.76;59.80
57709;SHT35;42558;52.388;13.390;2024-03-08T09:12:26;6.01;61.78
57709;SHT35;42558;52.388;13.390;2024-03-08T09:14:57;5.93;62.24
57709;SHT35;42558;52.388;13.390;2024-03-08T09:17:27;5.85;62.54
57709;SHT35;42558;52.388;13.390;2024-03-08T09:19:57;6.07;61.77
57709;SHT35;42558;52.388;13.390;2024-03-08T09:22:27;6.34;60.71
57709;SHT35;42558;52.388;13.390;2024-03-08T09:24:57;6.02;61.23
57709;SHT35;42558;52.388;13.390;2024-03-08T09:27:27;6.16;61.25
57709;SHT35;42558;52.388;13.390;2024-03-08T09:29:58;6.10;61.21
57709;SHT35;42558;52.388;13.390;2024-03-08T09:32:28;6.23;61.55
57709;SHT35;42558;52.388;13.390;2024-03-08T09:34:59;6.41;61.21
57709;SHT35;42558;52.388;13.390;2024-03-08T09:37:30;6.49;60.08
57709;SHT35;42558;52.388;13.390;2024-03-08T09:40:01;6.69;59.65
57709;SHT35;42558;52.388;13.390;2024-03-08T09:42:35;6.74;58.96
57709;SHT35;42558;52.388;13.390;2024-03-08T09:45:09;7.10;58.44
57709;SHT35;42558;52.388;13.390;2024-03-08T09:47:44;6.54;58.08
57709;SHT35;42558;52.388;13.390;2024-03-08T09:50:15;6.73;57.47
57709;SHT35;42558;52.388;13.390;2024-03-08T09:52:47;6.63;57.19
57709;SHT35;42558;52.388;13.390;2024-03-08T09:55:19;6.86;57.59
57709;SHT35;42558;52.388;13.390;2024-03-08T09:57:52;7.15;56.20
57709;SHT35;42558;52.388;13.390;2024-03-08T10:00:43;7.29;55.60
57709;SHT35;42558;52.388;13.390;2024-03-08T10:03:13;7.05;55.94
57709;SHT35;42558;52.388;13.390;2024-03-08T10:05:46;7.24;55.92
57709;SHT35;42558;52.388;13.390;2024-03-08T10:08:14;7.30;56.09
57709;SHT35;42558;52.388;13.390;2024-03-08T10:10:42;7.99;56.19
57709;SHT35;42558;52.388;13.390;2024-03-08T10:13:10;7.71;54.09
57709;SHT35;42558;52.388;13.390;2024-03-08T10:15:45;7.77;55.05
57709;SHT35;42558;52.388;13.390;2024-03-08T10:18:15;7.91;55.26
57709;SHT35;42558;52.388;13.390;2024-03-08T10:20:47;8.73;53.26
57709;SHT35;42558;52.388;13.390;2024-03-08T10:23:37;8.38;52.19
57709;SHT35;42558;52.388;13.390;2024-03-08T10:26:14;7.33;54.54
57709;SHT35;42558;52.388;13.390;2024-03-08T10:28:48;7.78;54.19
57709;SHT35;42558;52.388;13.390;2024-03-08T10:31:19;7.80;53.42
57709;SHT35;42558;52.388;13.390;2024-03-08T10:33:50;8.41;53.92
57709;SHT35;42558;52.388;13.390;2024-03-08T10:36:20;9.12;51.75
57709;SHT35;42558;52.388;13.390;2024-03-08T10:38:50;8.82;50.75
57709;SHT35;42558;52.388;13.390;2024-03-08T10:41:23;8.30;51.01
57709;SHT35;42558;52.388;13.390;2024-03-08T10:49:25;8.28;51.34
57709;SHT35;42558;52.388;13.390;2024-03-08T10:52:04;9.17;51.36
57709;SHT35;42558;52.388;13.390;2024-03-08T10:54:36;8.94;50.15
57709;SHT35;42558;52.388;13.390;2024-03-08T10:57:13;8.89;50.02
57709;SHT35;42558;52.388;13.390;2024-03-08T10:59:47;8.98;50.15
57709;SHT35;42558;52.388;13.390;2024-03-08T11:02:19;8.86;50.62
57709;SHT35;42558;52.388;13.390;2024-03-08T11:04:52;9.12;49.69
57709;SHT35;42558;52.388;13.390;2024-03-08T11:07:24;8.49;50.04
57709;SHT35;42558;52.388;13.390;2024-03-08T11:09:55;8.98;50.85
57709;SHT35;42558;52.388;13.390;2024-03-08T11:12:24;8.66;49.61
57709;SHT35;42558;52.388;13.390;2024-03-08T11:14:59;8.88;49.74
57709;SHT35;42558;52.388;13.390;2024-03-08T11:20:13;9.10;49.93
57709;SHT35;42558;52.388;13.390;2024-03-08T11:22:54;9.14;48.26
57709;SHT35;42558;52.388;13.390;2024-03-08T11:28:17;8.94;48.81
57709;SHT35;42558;52.388;13.390;2024-03-08T11:33:30;9.16;48.38
57709;SHT35;42558;52.388;13.390;2024-03-08T11:38:41;8.55;47.18
57709;SHT35;42558;52.388;13.390;2024-03-08T11:41:13;8.85;47.87
57709;SHT35;42558;52.388;13.390;2024-03-08T11:43:47;9.13;47.11
57709;SHT35;42558;52.388;13.390;2024-03-08T11:46:29;8.97;46.80
57709;SHT35;42558;52.388;13.390;2024-03-08T11:48:58;9.09;45.48
57709;SHT35;42558;52.388;13.390;2024-03-08T11:51:29;8.93;46.05
57709;SHT35;42558;52.388;13.390;2024-03-08T11:53:58;8.97;45.94
57709;SHT35;42558;52.388;13.390;2024-03-08T11:56:26;9.28;45.61
57709;SHT35;42558;52.388;13.390;2024-03-08T11:58:55;9.13;45.76
57709;SHT35;42558;52.388;13.390;2024-03-08T12:01:30;8.77;45.97
57709;SHT35;42558;52.388;13.390;2024-03-08T12:04:01;8.83;45.90
57709;SHT35;42558;52.388;13.390;2024-03-08T12:06:36;9.03;46.62
57709;SHT35;42558;52.388;13.390;2024-03-08T12:09:11;9.40;46.02
57709;SHT35;42558;52.388;13.390;2024-03-08T12:11:39;8.96;44.98
57709;SHT35;42558;52.388;13.390;2024-03-08T12:14:09;8.74;44.46
57709;SHT35;42558;52.388;13.390;2024-03-08T12:16:39;8.95;43.80
57709;SHT35;42558;52.388;13.390;2024-03-08T12:19:07;9.19;43.30
57709;SHT35;42558;52.388;13.390;2024-03-08T12:21:39;8.93;42.76
57709;SHT35;42558;52.388;13.390;2024-03-08T12:24:18;8.98;42.95
57709;SHT35;42558;52.388;13.390;2024-03-08T12:26:48;9.16;43.20
57709;SHT35;42558;52.388;13.390;2024-03-08T12:29:23;9.29;44.10
57709;SHT35;42558;52.388;13.390;2024-03-08T12:31:59;9.00;45.03
57709;SHT35;42558;52.388;13.390;2024-03-08T12:34:34;9.20;46.07
57709;SHT35;42558;52.388;13.390;2024-03-08T12:37:04;9.81;44.64
57709;SHT35;42558;52.388;13.390;2024-03-08T12:39:36;9.93;43.52
57709;SHT35;42558;52.388;13.390;2024-03-08T12:42:07;9.56;43.35
57709;SHT35;42558;52.388;13.390;2024-03-08T12:44:35;9.15;43.55
57709;SHT35;42558;52.388;13.390;2024-03-08T12:47:10;9.23;44.80
57709;SHT35;42558;52.388;13.390;2024-03-08T12:49:40;9.30;44.55
57709;SHT35;42558;52.388;13.390;2024-03-08T12:52:10;9.23;45.02
57709;SHT35;42558;52.388;13.390;2024-03-08T12:54:40;9.55;44.37
57709;SHT35;42558;52.388;13.390;2024-03-08T12:57:11;9.29;43.83
57709;SHT35;42558;52.388;13.390;2024-03-08T12:59:41;9.48;44.39
57709;SHT35;42558;52.388;13.390;2024-03-08T13:02:12;9.58;43.37
57709;SHT35;42558;52.388;13.390;2024-03-08T13:04:42;9.45;43.39
57709;SHT35;42558;52.388;13.390;2024-03-08T13:07:12;9.74;43.23
57709;SHT35;42558;52.388;13.390;2024-03-08T13:09:46;9.54;42.16
57709;SHT35;42558;52.388;13.390;2024-03-08T13:12:16;9.53;42.87
57709;SHT35;42558;52.388;13.390;2024-03-08T13:14:46;9.73;41.96
57709;SHT35;42558;52.388;13.390;2024-03-08T13:17:17;9.51;42.10
57709;SHT35;42558;52.388;13.390;2024-03-08T13:19:47;9.44;42.58
57709;SHT35;42558;52.388;13.390;2024-03-08T13:22:17;9.36;43.00
57709;SHT35;42558;52.388;13.390;2024-03-08T13:24:48;9.45;43.09
57709;SHT35;42558;52.388;13.390;2024-03-08T13:27:22;9.96;44.07
57709;SHT35;42558;52.388;13.390;2024-03-08T13:29:54;9.79;43.03
57709;SHT35;42558;52.388;13.390;2024-03-08T13:32:24;9.74;43.09
57709;SHT35;42558;52.388;13.390;2024-03-08T13:34:56;9.71;43.14
57709;SHT35;42558;52.388;13.390;2024-03-08T13:37:26;10.10;43.19
57709;SHT35;42558;52.388;13.390;2024-03-08T13:39:56;10.29;42.30
57709;SHT35;42558;52.388;13.390;2024-03-08T13:42:26;9.73;42.31
57709;SHT35;42558;52.388;13.390;2024-03-08T13:44:57;9.83;42.38
57709;SHT35;42558;52.388;13.390;2024-03-08T13:47:27;9.95;42.62
57709;SHT35;42558;52.388;13.390;2024-03-08T13:49:57;9.83;42.70
57709;SHT35;42558;52.388;13.390;2024-03-08T13:52:27;9.78;43.54
57709;SHT35;42558;52.388;13.390;2024-03-08T13:55:00;9.95;43.23
57709;SHT35;42558;52.388;13.390;2024-03-08T13:57:31;9.94;43.09
57709;SHT35;42558;52.388;13.390;2024-03-08T14:00:02;10.16;42.93
57709;SHT35;42558;52.388;13.390;2024-03-08T14:02:34;9.85;42.57
57709;SHT35;42558;52.388;13.390;2024-03-08T14:05:04;9.81;43.15
57709;SHT35;42558;52.388;13.390;2024-03-08T14:07:34;9.85;42.79
57709;SHT35;42558;52.388;13.390;2024-03-08T14:10:05;9.98;42.91
57709;SHT35;42558;52.388;13.390;2024-03-08T14:12:36;10.19;43.08
57709;SHT35;42558;52.388;13.390;2024-03-08T14:15:07;10.27;42.45
57709;SHT35;42558;52.388;13.390;2024-03-08T14:17:39;9.89;42.56
57709;SHT35;42558;52.388;13.390;2024-03-08T14:20:09;9.84;43.63
57709;SHT35;42558;52.388;13.390;2024-03-08T14:22:40;10.21;42.67
57709;SHT35;42558;52.388;13.390;2024-03-08T14:25:09;10.07;42.60
57709;SHT35;42558;52.388;13.390;2024-03-08T14:27:47;10.23;42.60
57709;SHT35;42558;52.388;13.390;2024-03-08T14:30:19;10.46;42.34
57709;SHT35;42558;52.388;13.390;2024-03-08T14:33:04;10.54;41.63
57709;SHT35;42558;52.388;13.390;2024-03-08T14:35:35;10.49;41.96
57709;SHT35;42558;52.388;13.390;2024-03-08T14:38:06;10.27;42.31
57709;SHT35;42558;52.388;13.390;2024-03-08T14:40:38;10.38;41.52
57709;SHT35;42558;52.388;13.390;2024-03-08T14:43:08;10.29;42.17
57709;SHT35;42558;52.388;13.390;2024-03-08T14:45:39;10.34;41.81
57709;SHT35;42558;52.388;13.390;2024-03-08T14:48:10;10.42;41.67
57709;SHT35;42558;52.388;13.390;2024-03-08T14:50:41;10.06;41.87
57709;SHT35;42558;52.388;13.390;2024-03-08T14:53:13;10.30;42.07
57709;SHT35;42558;52.388;13.390;2024-03-08T14:55:45;10.09;41.85
57709;SHT35;42558;52.388;13.390;2024-03-08T14:58:17;10.11;42.03
57709;SHT35;42558;52.388;13.390;2024-03-08T15:00:47;10.04;42.04
57709;SHT35;42558;52.388;13.390;2024-03-08T15:03:20;10.16;42.52
57709;SHT35;42558;52.388;13.390;2024-03-08T15:05:54;10.31;42.31
57709;SHT35;42558;52.388;13.390;2024-03-08T15:08:25;10.21;42.18
57709;SHT35;42558;52.388;13.390;2024-03-08T15:10:56;9.99;42.41
57709;SHT35;42558;52.388;13.390;2024-03-08T15:13:28;10.02;42.79
57709;SHT35;42558;52.388;13.390;2024-03-08T15:16:08;9.85;42.52
57709;SHT35;42558;52.388;13.390;2024-03-08T15:18:44;9.76;43.38
57709;SHT35;42558;52.388;13.390;2024-03-08T15:21:21;9.66;43.27
57709;SHT35;42558;52.388;13.390;2024-03-08T15:23:53;9.60;43.26
57709;SHT35;42558;52.388;13.390;2024-03-08T15:26:24;9.61;43.67
57709;SHT35;42558;52.388;13.390;2024-03-08T15:28:56;9.72;44.01
57709;SHT35;42558;52.388;13.390;2024-03-08T15:31:26;9.79;44.16
57709;SHT35;42558;52.388;13.390;2024-03-08T15:33:57;9.76;43.84
57709;SHT35;42558;52.388;13.390;2024-03-08T15:36:36;9.70;43.90
57709;SHT35;42558;52.388;13.390;2024-03-08T15:39:08;9.40;44.48
57709;SHT35;42558;52.388;13.390;2024-03-08T15:41:40;9.39;44.83
57709;SHT35;42558;52.388;13.390;2024-03-08T15:44:10;9.30;44.36
57709;SHT35;42558;52.388;13.390;2024-03-08T15:46:41;9.35;44.45
57709;SHT35;42558;52.388;13.390;2024-03-08T15:49:09;9.44;44.66
57709;SHT35;42558;52.388;13.390;2024-03-08T15:51:38;9.33;45.04
57709;SHT35;42558;52.388;13.390;2024-03-08T15:54:06;9.37;45.19
57709;SHT35;42558;52.388;13.390;2024-03-08T15:56:34;9.19;45.32
57709;SHT35;42558;52.388;13.390;2024-03-08T15:59:03;9.06;45.90
57709;SHT35;42558;52.388;13.390;2024-03-08T16:01:35;8.98;46.30
57709;SHT35;42558;52.388;13.390;2024-03-08T16:04:03;8.88;46.76